createdAt,value
2019-02-19T00:01:53.415Z,25.33
2019-02-19T00:04:22.662Z,26.80
2019-02-19T00:06:51.959Z,26.83
2019-02-19T00:09:21.139Z,27.37
2019-02-19T00:11:50.480Z,26.77
2019-02-19T00:14:19.753Z,26.63
2019-02-19T00:16:49.070Z,27.93
2019-02-19T00:19:18.399Z,27.97
2019-02-19T00:21:47.686Z,29.13
2019-02-19T00:24:16.998Z,27.37
2019-02-19T00:26:46.336Z,24.63
2019-02-19T00:29:15.598Z,27.00
2019-02-19T00:31:44.919Z,28.37
2019-02-19T00:34:14.226Z,26.97
2019-02-19T00:36:43.528Z,26.23
2019-02-19T00:39:12.842Z,26.70
2019-02-19T00:41:42.124Z,26.73
2019-02-19T00:44:11.394Z,28.60
2019-02-19T00:46:40.616Z,26.90
2019-02-19T00:49:09.812Z,28.23
2019-02-19T00:51:39.018Z,27.20
2019-02-19T00:54:08.291Z,28.07
2019-02-19T00:56:37.570Z,27.50
2019-02-19T00:59:06.786Z,28.37
2019-02-19T01:01:36.006Z,28.20
2019-02-19T01:04:05.305Z,28.03
2019-02-19T01:06:34.611Z,26.30
2019-02-19T01:09:05.524Z,26.77
2019-02-19T01:11:34.822Z,26.43
2019-02-19T01:14:04.148Z,27.33
2019-02-19T01:16:33.340Z,26.83
2019-02-19T01:19:02.601Z,28.00
2019-02-19T01:21:31.806Z,26.43
2019-02-19T01:24:01.048Z,27.93
2019-02-19T01:26:30.322Z,27.67
2019-02-19T01:28:59.562Z,28.73
2019-02-19T01:31:28.950Z,28.77
2019-02-19T01:33:58.232Z,28.50
2019-02-19T01:36:27.587Z,29.00
2019-02-19T01:38:56.834Z,27.60
2019-02-19T01:41:26.082Z,28.37
2019-02-19T01:43:55.361Z,27.47
2019-02-19T01:46:24.727Z,27.60
2019-02-19T01:48:54.074Z,25.63
2019-02-19T01:51:23.363Z,27.23
2019-02-19T01:53:52.590Z,27.37
2019-02-19T01:56:21.890Z,26.33
2019-02-19T01:58:51.067Z,25.70
2019-02-19T02:01:20.344Z,24.67
2019-02-19T02:03:49.718Z,25.60
2019-02-19T02:06:18.900Z,25.53
2019-02-19T02:08:48.104Z,25.43
2019-02-19T02:11:17.423Z,25.13
2019-02-19T02:13:46.668Z,23.43
2019-02-19T02:16:15.929Z,24.07
2019-02-19T02:18:45.217Z,24.03
2019-02-19T02:21:14.472Z,24.03
2019-02-19T02:23:43.732Z,22.83
2019-02-19T02:26:13.117Z,24.60
2019-02-19T02:28:42.370Z,24.17
2019-02-19T02:31:11.574Z,24.03
2019-02-19T02:33:40.812Z,23.47
2019-02-19T02:36:10.011Z,23.50
2019-02-19T02:38:39.251Z,24.30
2019-02-19T02:41:08.720Z,22.00
2019-02-19T02:43:38.037Z,21.93
2019-02-19T02:46:07.213Z,21.73
2019-02-19T02:48:36.535Z,22.67
2019-02-19T02:51:05.891Z,23.17
2019-02-19T02:53:35.180Z,22.03
2019-02-19T02:56:04.563Z,21.30
2019-02-19T02:58:33.840Z,21.83
2019-02-19T03:01:03.185Z,21.57
2019-02-19T03:03:32.491Z,20.53
2019-02-19T03:06:11.100Z,21.10
2019-02-19T03:08:40.322Z,21.33
2019-02-19T03:11:09.534Z,21.40
2019-02-19T03:13:38.813Z,20.77
2019-02-19T03:16:08.137Z,20.90
2019-02-19T03:18:37.451Z,22.73
2019-02-19T03:21:06.726Z,21.87
2019-02-19T03:23:36.076Z,21.43
2019-02-19T03:26:05.440Z,21.50
2019-02-19T03:28:34.775Z,22.77
2019-02-19T03:31:04.112Z,21.60
2019-02-19T03:33:33.441Z,21.27
2019-02-19T03:36:02.733Z,20.70
2019-02-19T03:38:32.094Z,20.43
2019-02-19T03:41:01.378Z,20.53
2019-02-19T03:43:30.673Z,20.27
2019-02-19T03:45:59.820Z,20.53
2019-02-19T03:48:29.091Z,22.03
2019-02-19T03:50:58.247Z,21.40
2019-02-19T03:53:27.528Z,20.10
2019-02-19T03:55:56.725Z,20.20
2019-02-19T03:58:26.047Z,20.93
2019-02-19T04:00:55.249Z,21.50
2019-02-19T04:03:24.621Z,20.23
2019-02-19T04:05:53.932Z,18.80
2019-02-19T04:08:23.174Z,19.83
2019-02-19T04:10:52.518Z,21.77
2019-02-19T04:13:21.840Z,20.33
2019-02-19T04:15:51.200Z,19.43
2019-02-19T04:18:20.406Z,19.13
2019-02-19T04:20:49.635Z,18.40
2019-02-19T04:23:18.834Z,19.37
2019-02-19T04:25:48.121Z,19.37
2019-02-19T04:28:17.312Z,19.23
2019-02-19T04:30:46.539Z,19.23
2019-02-19T04:33:15.933Z,19.23
2019-02-19T04:35:45.259Z,18.40
2019-02-19T04:38:14.520Z,20.07
2019-02-19T04:40:43.739Z,19.00
2019-02-19T04:43:13.046Z,21.53
2019-02-19T04:45:42.203Z,18.20
2019-02-19T04:48:11.509Z,19.20
2019-02-19T04:50:40.693Z,16.37
2019-02-19T04:53:10.023Z,17.33
2019-02-19T04:55:39.258Z,17.53
2019-02-19T04:58:08.525Z,16.90
2019-02-19T05:00:37.767Z,16.80
2019-02-19T05:03:07.110Z,17.50
2019-02-19T05:05:36.367Z,16.97
2019-02-19T05:08:05.552Z,16.93
2019-02-19T05:10:34.816Z,18.37
2019-02-19T05:13:04.133Z,17.40
2019-02-19T05:15:33.571Z,17.83
2019-02-19T05:18:02.835Z,16.97
2019-02-19T05:20:32.203Z,17.93
2019-02-19T05:23:01.509Z,15.90
2019-02-19T05:25:30.687Z,17.37
2019-02-19T05:27:59.993Z,17.37
2019-02-19T05:30:29.156Z,17.67
2019-02-19T05:32:58.463Z,17.57
2019-02-19T05:35:27.817Z,17.77
2019-02-19T05:37:57.128Z,18.20
2019-02-19T05:40:26.417Z,17.80
2019-02-19T05:42:55.655Z,17.47
2019-02-19T05:45:24.999Z,17.67
2019-02-19T05:47:54.235Z,17.37
2019-02-19T05:50:23.467Z,15.87
2019-02-19T05:52:52.726Z,18.20
2019-02-19T05:55:21.969Z,18.67
2019-02-19T05:57:51.232Z,17.00
2019-02-19T06:00:20.496Z,18.07
2019-02-19T06:02:49.848Z,17.40
2019-02-19T06:05:19.062Z,15.60
2019-02-19T06:07:48.310Z,15.97
2019-02-19T06:10:17.561Z,16.20
2019-02-19T06:12:46.807Z,15.63
2019-02-19T06:15:16.123Z,15.63
2019-02-19T06:17:45.383Z,16.00
2019-02-19T06:20:14.739Z,14.77
2019-02-19T06:22:43.987Z,16.27
2019-02-19T06:25:13.249Z,14.53
2019-02-19T06:27:42.627Z,15.63
2019-02-19T06:30:12.951Z,15.43
2019-02-19T06:32:42.241Z,14.27
2019-02-19T06:35:11.567Z,16.10
2019-02-19T06:37:40.855Z,15.37
2019-02-19T06:40:21.822Z,15.30
2019-02-19T06:42:51.181Z,14.70
2019-02-19T06:45:20.484Z,15.33
2019-02-19T06:47:49.710Z,16.03
2019-02-19T06:50:19.112Z,15.77
2019-02-19T06:52:48.378Z,15.03
2019-02-19T06:55:17.675Z,15.30
2019-02-19T06:57:46.886Z,14.27
2019-02-19T07:00:16.117Z,14.50
2019-02-19T07:02:56.867Z,13.87
2019-02-19T07:05:26.279Z,14.23
2019-02-19T07:07:55.639Z,13.13
2019-02-19T07:10:24.855Z,13.17
2019-02-19T07:12:54.099Z,12.50
2019-02-19T07:15:23.358Z,11.67
2019-02-19T07:17:52.609Z,12.97
2019-02-19T07:20:21.825Z,12.43
2019-02-19T07:22:51.136Z,13.23
2019-02-19T07:25:20.401Z,12.17
2019-02-19T07:27:49.781Z,11.93
2019-02-19T07:30:19.135Z,12.70
2019-02-19T07:32:48.419Z,14.20
2019-02-19T07:35:17.782Z,13.67
2019-02-19T07:37:47.145Z,13.37
2019-02-19T07:40:17.515Z,14.50
2019-02-19T07:42:46.971Z,12.77
2019-02-19T07:45:16.229Z,12.87
2019-02-19T07:47:45.490Z,13.10
2019-02-19T07:50:14.772Z,13.23
2019-02-19T07:52:44.044Z,12.50
2019-02-19T07:55:13.228Z,13.27
2019-02-19T07:57:42.974Z,12.60
2019-02-19T08:00:12.377Z,13.50
2019-02-19T08:02:41.811Z,12.60
2019-02-19T08:05:11.264Z,12.37
2019-02-19T08:07:40.553Z,13.20
2019-02-19T08:10:10.170Z,12.47
2019-02-19T08:12:39.484Z,13.20
2019-02-19T08:15:09.299Z,13.83
2019-02-19T08:17:39.573Z,13.80
2019-02-19T08:20:15.351Z,12.80
2019-02-19T08:22:39.930Z,12.37
2019-02-19T08:25:09.203Z,12.63
2019-02-19T08:27:38.415Z,12.23
2019-02-19T08:30:08.170Z,12.60
2019-02-19T08:32:37.464Z,12.67
2019-02-19T08:35:06.763Z,11.93
2019-02-19T08:37:35.963Z,12.27
2019-02-19T08:40:05.247Z,12.73
2019-02-19T08:42:34.491Z,14.17
2019-02-19T08:45:03.868Z,12.17
2019-02-19T08:47:42.039Z,13.30
2019-02-19T08:50:04.090Z,13.43
2019-02-19T08:52:33.441Z,13.00
2019-02-19T08:55:02.765Z,13.33
2019-02-19T08:57:32.099Z,12.47
2019-02-19T09:00:01.398Z,13.10
2019-02-19T09:02:30.785Z,12.73
2019-02-19T09:05:00.007Z,12.90
2019-02-19T09:07:29.275Z,13.63
2019-02-19T09:09:58.481Z,13.23
2019-02-19T09:12:27.951Z,13.53
2019-02-19T09:14:57.286Z,13.53
2019-02-19T09:17:26.591Z,13.07
2019-02-19T09:19:55.810Z,12.27
2019-02-19T09:22:25.135Z,13.93
2019-02-19T09:24:54.343Z,12.77
2019-02-19T09:27:23.702Z,13.33
2019-02-19T09:29:53.006Z,13.40
2019-02-19T09:32:22.235Z,12.87
2019-02-19T09:34:52.698Z,14.23
2019-02-19T09:37:22.110Z,14.30
2019-02-19T09:39:51.340Z,13.70
2019-02-19T09:42:20.512Z,14.60
2019-02-19T09:44:49.738Z,14.03
2019-02-19T09:47:18.909Z,13.83
2019-02-19T09:49:48.198Z,13.87
2019-02-19T09:52:17.457Z,14.10
2019-02-19T09:54:46.831Z,13.63
2019-02-19T09:57:16.101Z,12.90
2019-02-19T09:59:45.451Z,12.97
2019-02-19T10:02:14.730Z,13.80
2019-02-19T10:04:44.019Z,13.07
2019-02-19T10:07:13.301Z,13.37
2019-02-19T10:09:42.688Z,13.73
2019-02-19T10:12:11.974Z,13.57
2019-02-19T10:14:41.277Z,13.67
2019-02-19T10:17:10.623Z,14.03
2019-02-19T10:19:39.936Z,14.27
2019-02-19T10:22:09.272Z,12.97
2019-02-19T10:24:38.544Z,12.80
2019-02-19T10:27:07.756Z,12.50
2019-02-19T10:29:37.080Z,13.03
2019-02-19T10:32:06.379Z,12.27
2019-02-19T10:34:35.718Z,13.83
2019-02-19T10:37:04.930Z,12.73
2019-02-19T10:39:34.116Z,13.10
2019-02-19T10:42:03.868Z,12.20
2019-02-19T10:44:33.373Z,12.63
2019-02-19T10:47:02.628Z,12.30
2019-02-19T10:49:31.890Z,13.20
2019-02-19T10:52:01.142Z,12.13
2019-02-19T10:54:30.327Z,12.57
2019-02-19T10:56:59.638Z,12.20
2019-02-19T10:59:28.943Z,12.40
2019-02-19T11:01:58.270Z,13.43
2019-02-19T11:04:27.588Z,12.97
2019-02-19T11:06:56.868Z,12.40
2019-02-19T11:09:26.130Z,11.57
2019-02-19T11:11:55.391Z,10.83
2019-02-19T11:14:24.717Z,11.93
2019-02-19T11:16:53.906Z,11.20
2019-02-19T11:19:23.088Z,10.87
2019-02-19T11:21:52.397Z,11.30
2019-02-19T11:24:21.827Z,10.73
2019-02-19T11:26:51.067Z,10.83
2019-02-19T11:29:20.735Z,10.47
2019-02-19T11:31:50.076Z,10.97
2019-02-19T11:34:19.385Z,10.17
2019-02-19T11:36:48.729Z,10.77
2019-02-19T11:39:18.024Z,9.73
2019-02-19T11:41:47.324Z,10.07
2019-02-19T11:44:16.714Z,10.70
2019-02-19T11:46:45.915Z,11.23
2019-02-19T11:49:15.186Z,10.60
2019-02-19T11:51:44.408Z,10.37
2019-02-19T11:54:13.765Z,10.77
2019-02-19T11:56:43.054Z,10.00
2019-02-19T11:59:12.320Z,9.40
2019-02-19T12:01:41.848Z,9.70
2019-02-19T12:04:11.194Z,9.20
2019-02-19T12:06:40.504Z,10.07
2019-02-19T12:09:09.722Z,9.87
2019-02-19T12:11:38.912Z,9.53
2019-02-19T12:14:08.198Z,10.13
2019-02-19T12:16:37.450Z,10.20
2019-02-19T12:19:06.695Z,9.03
2019-02-19T12:21:35.978Z,9.27
2019-02-19T12:24:05.215Z,9.73
2019-02-19T12:26:34.488Z,9.50
2019-02-19T12:29:03.775Z,8.80
2019-02-19T12:31:33.118Z,8.50
2019-02-19T12:34:02.598Z,8.07
2019-02-19T12:36:32.315Z,9.23
2019-02-19T12:39:02.702Z,8.80
2019-02-19T12:41:32.000Z,8.83
2019-02-19T12:44:01.268Z,9.30
2019-02-19T12:46:30.675Z,9.00
2019-02-19T12:48:59.952Z,8.40
2019-02-19T12:51:29.576Z,9.20
2019-02-19T12:53:58.836Z,8.93
2019-02-19T12:56:28.146Z,8.87
2019-02-19T12:58:57.410Z,9.57
2019-02-19T13:01:26.737Z,9.13
2019-02-19T13:03:56.026Z,9.30
2019-02-19T13:06:25.336Z,9.40
2019-02-19T13:08:54.612Z,8.77
2019-02-19T13:11:23.937Z,8.83
2019-02-19T13:13:53.185Z,9.93
2019-02-19T13:16:22.490Z,8.93
2019-02-19T13:18:51.690Z,9.77
2019-02-19T13:21:20.894Z,8.73
2019-02-19T13:23:50.168Z,17.80
2019-02-19T13:26:19.423Z,9.63
2019-02-19T13:28:48.625Z,7.87
2019-02-19T13:31:17.883Z,7.57
2019-02-19T13:33:47.214Z,7.57
2019-02-19T13:36:16.548Z,6.60
2019-02-19T13:38:45.903Z,7.37
2019-02-19T13:41:15.263Z,7.30
2019-02-19T13:43:44.676Z,6.97
2019-02-19T13:46:13.980Z,7.00
2019-02-19T13:48:43.268Z,7.10
2019-02-19T13:51:15.054Z,7.37
2019-02-19T13:53:57.937Z,7.73
2019-02-19T13:56:27.253Z,6.53
2019-02-19T13:58:56.468Z,7.60
2019-02-19T14:01:25.759Z,7.10
2019-02-19T14:03:55.031Z,8.10
2019-02-19T14:06:24.312Z,6.87
2019-02-19T14:08:53.610Z,6.80
2019-02-19T14:11:22.797Z,6.60
2019-02-19T14:14:14.803Z,7.30
2019-02-19T14:16:53.454Z,6.57
2019-02-19T14:19:37.460Z,7.37
2019-02-19T14:22:41.056Z,7.83
2019-02-19T14:25:38.142Z,7.50
2019-02-19T14:28:25.021Z,7.27
2019-02-19T14:31:25.430Z,7.23
2019-02-19T14:34:22.833Z,7.67
2019-02-19T14:37:09.996Z,7.33
2019-02-19T14:39:51.205Z,7.17
2019-02-19T14:42:45.442Z,7.03
2019-02-19T14:45:36.451Z,7.57
2019-02-19T14:48:23.371Z,7.80
2019-02-19T14:51:11.697Z,7.30
2019-02-19T14:53:52.536Z,7.60
2019-02-19T14:56:34.589Z,7.83
2019-02-19T14:59:34.870Z,6.97
2019-02-19T15:02:23.120Z,7.73
2019-02-19T15:05:20.654Z,7.57
2019-02-19T15:08:07.639Z,7.10
2019-02-19T15:11:14.375Z,8.53
2019-02-19T15:14:05.657Z,7.90
2019-02-19T15:16:47.249Z,8.23
2019-02-19T15:19:44.608Z,7.97
2019-02-19T15:22:23.136Z,8.37
2019-02-19T15:25:26.619Z,8.27
2019-02-19T15:28:23.962Z,8.10
2019-02-19T15:31:01.676Z,8.00
2019-02-19T15:33:52.779Z,7.83
2019-02-19T15:36:39.821Z,7.77
2019-02-19T15:39:34.106Z,7.90
2019-02-19T15:42:22.329Z,8.10
2019-02-19T15:44:59.771Z,8.10
2019-02-19T15:47:48.045Z,7.53
2019-02-19T15:50:28.282Z,7.27
2019-02-19T15:53:15.293Z,7.67
2019-02-19T15:56:03.647Z,7.57
2019-02-19T15:58:43.123Z,7.20
2019-02-19T16:01:30.301Z,7.37
2019-02-19T16:04:18.621Z,7.33
2019-02-19T16:07:00.708Z,7.87
2019-02-19T16:09:47.328Z,8.27
2019-02-19T16:12:30.859Z,9.00
2019-02-19T16:15:28.252Z,8.30
2019-02-19T16:18:04.712Z,8.67
2019-02-19T16:21:08.420Z,8.83
2019-02-19T16:23:58.118Z,9.33
2019-02-19T16:26:58.749Z,8.87
2019-02-19T16:29:59.060Z,9.47
2019-02-19T16:32:39.023Z,9.73
2019-02-19T16:35:33.204Z,9.90
2019-02-19T16:38:28.016Z,10.33
2019-02-19T16:41:28.529Z,9.73
2019-02-19T16:44:15.781Z,9.37
2019-02-19T16:47:10.409Z,10.23
2019-02-19T16:50:06.907Z,11.37
2019-02-19T16:52:50.253Z,10.97
2019-02-19T16:55:34.069Z,11.67
2019-02-19T16:58:14.731Z,10.33
2019-02-19T17:01:04.994Z,11.57
2019-02-19T17:03:52.510Z,10.63
2019-02-19T17:06:43.971Z,11.17
2019-02-19T17:09:24.679Z,11.97
2019-02-19T17:12:11.396Z,12.67
2019-02-19T17:15:09.077Z,12.37
2019-02-19T17:17:52.680Z,14.23
2019-02-19T17:20:41.006Z,11.23
2019-02-19T17:23:15.679Z,12.00
2019-02-19T17:26:03.914Z,12.17
2019-02-19T17:28:52.266Z,13.57
2019-02-19T17:31:31.324Z,13.00
2019-02-19T17:34:26.402Z,13.40
2019-02-19T17:37:18.024Z,13.83
2019-02-19T17:40:07.630Z,14.63
2019-02-19T17:42:58.700Z,15.60
2019-02-19T17:45:45.930Z,20.70
2019-02-19T17:48:43.279Z,45.30
2019-02-19T17:51:50.199Z,31.27
2019-02-19T17:54:30.725Z,23.73
2019-02-19T17:57:24.888Z,43.17
2019-02-19T18:00:15.924Z,37.40
2019-02-19T18:03:07.044Z,35.33
2019-02-19T18:05:46.298Z,17.17
2019-02-19T18:08:46.963Z,15.07
2019-02-19T18:11:35.212Z,21.07
2019-02-19T18:14:17.261Z,15.43
2019-02-19T18:17:14.682Z,16.07
2019-02-19T18:19:44.030Z,18.27
2019-02-19T18:22:13.308Z,19.10
2019-02-19T18:24:42.772Z,17.70
2019-02-19T18:27:12.109Z,17.10
2019-02-19T18:29:41.325Z,15.50
2019-02-19T18:32:10.628Z,15.03
2019-02-19T18:34:39.902Z,17.50
2019-02-19T18:37:09.179Z,14.43
2019-02-19T18:39:38.565Z,17.73
2019-02-19T18:42:07.795Z,15.07
2019-02-19T18:44:37.115Z,14.37
2019-02-19T18:47:06.325Z,13.47
2019-02-19T18:49:35.580Z,13.83
2019-02-19T18:52:04.940Z,14.57
2019-02-19T18:54:34.269Z,14.43
2019-02-19T18:57:03.604Z,13.93
2019-02-19T18:59:33.048Z,14.30
2019-02-19T19:02:02.472Z,14.13
2019-02-19T19:04:31.940Z,13.00
2019-02-19T19:07:01.227Z,13.87
2019-02-19T19:09:30.504Z,13.47
2019-02-19T19:11:59.943Z,13.50
2019-02-19T19:14:29.310Z,13.27
2019-02-19T19:16:58.701Z,13.87
2019-02-19T19:19:28.058Z,13.57
2019-02-19T19:21:57.545Z,13.37
2019-02-19T19:24:26.918Z,14.27
2019-02-19T19:26:56.461Z,14.30
2019-02-19T19:29:25.868Z,14.70
2019-02-19T19:32:14.299Z,14.83
2019-02-19T19:34:43.859Z,14.80
2019-02-19T19:37:13.847Z,15.10
2019-02-19T19:39:43.200Z,15.57
2019-02-19T19:42:12.714Z,14.77
2019-02-19T19:44:42.099Z,15.63
2019-02-19T19:47:11.578Z,15.43
2019-02-19T19:49:41.089Z,16.37
2019-02-19T19:52:10.824Z,14.80
2019-02-19T19:54:40.533Z,16.40
2019-02-19T19:57:10.108Z,16.50
2019-02-19T19:59:39.529Z,15.67
2019-02-19T20:02:08.931Z,15.23
2019-02-19T20:04:38.296Z,17.60
2019-02-19T20:07:07.717Z,17.10
2019-02-19T20:09:37.179Z,17.87
2019-02-19T20:12:06.633Z,17.47
2019-02-19T20:14:36.094Z,21.17
2019-02-19T20:17:05.501Z,29.50
2019-02-19T20:19:34.860Z,17.27
2019-02-19T20:22:04.249Z,23.70
2019-02-19T20:24:33.683Z,16.23
2019-02-19T20:27:03.071Z,73.77
2019-02-19T20:29:32.425Z,17.23
2019-02-19T20:32:01.857Z,18.17
2019-02-19T20:34:31.231Z,17.30
2019-02-19T20:37:00.572Z,32.17
2019-02-19T20:39:30.139Z,33.10
2019-02-19T20:41:59.517Z,27.40
2019-02-19T20:44:28.924Z,44.37
2019-02-19T20:46:58.296Z,34.33
2019-02-19T20:49:27.609Z,15.57
2019-02-19T20:51:56.990Z,16.13
2019-02-19T20:54:26.331Z,16.77
2019-02-19T20:56:55.665Z,17.70
2019-02-19T20:59:25.029Z,17.33
2019-02-19T21:01:54.571Z,18.10
2019-02-19T21:04:23.960Z,16.90
2019-02-19T21:06:53.399Z,16.60
2019-02-19T21:09:22.818Z,16.57
2019-02-19T21:11:52.219Z,18.17
2019-02-19T21:14:21.544Z,17.43
2019-02-19T21:16:51.027Z,17.03
2019-02-19T21:19:20.507Z,16.33
2019-02-19T21:21:49.870Z,17.43
2019-02-19T21:24:19.287Z,16.83
2019-02-19T21:26:48.667Z,16.50
2019-02-19T21:29:18.373Z,21.23
2019-02-19T21:31:47.712Z,17.27
2019-02-19T21:34:17.016Z,16.30
2019-02-19T21:36:46.521Z,15.93
2019-02-19T21:39:16.063Z,16.97
2019-02-19T21:41:45.571Z,16.17
2019-02-19T21:44:15.263Z,17.00
2019-02-19T21:46:44.736Z,18.87
2019-02-19T21:49:14.073Z,17.73
2019-02-19T21:51:43.636Z,16.90
2019-02-19T21:54:12.892Z,17.53
2019-02-19T21:56:42.608Z,17.27
2019-02-19T21:59:12.256Z,17.57
2019-02-19T22:01:41.804Z,16.97
2019-02-19T22:04:11.122Z,16.60
2019-02-19T22:06:40.552Z,18.07
2019-02-19T22:09:09.824Z,18.00
2019-02-19T22:11:39.216Z,18.13
2019-02-19T22:14:08.625Z,17.27
2019-02-19T22:16:37.978Z,17.07
2019-02-19T22:19:07.277Z,17.30
2019-02-19T22:21:50.406Z,18.00
2019-02-19T22:24:35.172Z,18.20
2019-02-19T22:27:06.396Z,19.03
2019-02-19T22:29:36.143Z,18.97
2019-02-19T22:32:05.962Z,19.07
2019-02-19T22:34:36.599Z,18.87
2019-02-19T22:37:06.492Z,18.10
2019-02-19T22:39:35.855Z,18.57
2019-02-19T22:42:05.590Z,19.57
2019-02-19T22:44:35.498Z,19.20
2019-02-19T22:47:04.901Z,19.87
2019-02-19T22:49:34.245Z,19.83
2019-02-19T22:52:11.948Z,18.63
2019-02-19T22:55:06.035Z,18.17
2019-02-19T22:57:35.584Z,18.77
2019-02-19T23:00:08.161Z,18.77
2019-02-19T23:02:37.625Z,18.20
2019-02-19T23:05:07.226Z,18.13
2019-02-19T23:07:36.690Z,18.30
2019-02-19T23:10:06.676Z,17.63
2019-02-19T23:12:36.008Z,17.73
2019-02-19T23:15:05.826Z,16.47
2019-02-19T23:17:35.123Z,18.20
2019-02-19T23:20:05.049Z,16.57
2019-02-19T23:22:34.638Z,17.10
2019-02-19T23:25:04.211Z,17.43
2019-02-19T23:27:33.555Z,17.57
2019-02-19T23:30:02.943Z,16.23
2019-02-19T23:32:32.240Z,17.07
2019-02-19T23:35:23.282Z,17.40
2019-02-19T23:37:52.522Z,16.53
2019-02-19T23:40:21.882Z,17.80
2019-02-19T23:42:51.363Z,18.43
2019-02-19T23:45:20.622Z,17.87
2019-02-19T23:47:49.911Z,17.60
2019-02-19T23:50:19.295Z,19.57
2019-02-19T23:52:48.608Z,19.10
2019-02-19T23:55:17.956Z,18.70
2019-02-19T23:57:47.316Z,17.63
